sensor_id;sensor_type;location;lat;lon;timestamp;P1;durP1;ratioP1;P2;durP2;ratioP2
9720;SDS011;4899;42.644;23.366;2023-07-24T00:01:52;12.43;;;9.80;;
9720;SDS011;4899;42.644;23.366;2023-07-24T00:04:17;9.50;;;8.50;;
9720;SDS011;4899;42.644;23.366;2023-07-24T00:07:01;10.00;;;9.00;;
9720;SDS011;4899;42.644;23.366;2023-07-24T00:09:26;10.13;;;9.13;;
9720;SDS011;4899;42.644;23.366;2023-07-24T00:11:51;12.07;;;9.90;;
9720;SDS011;4899;42.644;23.366;2023-07-24T00:14:16;11.43;;;10.20;;
9720;SDS011;4899;42.644;23.366;2023-07-24T00:16:42;10.77;;;9.37;;
9720;SDS011;4899;42.644;23.366;2023-07-24T00:19:07;11.37;;;9.60;;
9720;SDS011;4899;42.644;23.366;2023-07-24T00:21:32;10.63;;;8.87;;
9720;SDS011;4899;42.644;23.366;2023-07-24T00:23:58;11.63;;;10.27;;
9720;SDS011;4899;42.644;23.366;2023-07-24T00:26:23;13.57;;;9.60;;
9720;SDS011;4899;42.644;23.366;2023-07-24T00:28:48;11.40;;;9.20;;
9720;SDS011;4899;42.644;23.366;2023-07-24T00:31:13;13.13;;;9.87;;
9720;SDS011;4899;42.644;23.366;2023-07-24T00:33:39;10.60;;;9.27;;
9720;SDS011;4899;42.644;23.366;2023-07-24T00:36:04;11.63;;;10.10;;
9720;SDS011;4899;42.644;23.366;2023-07-24T00:38:30;10.73;;;9.63;;
9720;SDS011;4899;42.644;23.366;2023-07-24T00:40:55;12.90;;;10.37;;
9720;SDS011;4899;42.644;23.366;2023-07-24T00:43:20;13.70;;;10.37;;
9720;SDS011;4899;42.644;23.366;2023-07-24T00:45:45;11.60;;;9.87;;
9720;SDS011;4899;42.644;23.366;2023-07-24T00:48:11;10.37;;;9.20;;
9720;SDS011;4899;42.644;23.366;2023-07-24T00:50:37;12.03;;;9.93;;
9720;SDS011;4899;42.644;23.366;2023-07-24T00:53:02;10.77;;;9.63;;
9720;SDS011;4899;42.644;23.366;2023-07-24T00:55:27;11.67;;;10.43;;
9720;SDS011;4899;42.644;23.366;2023-07-24T00:57:53;11.60;;;10.40;;
9720;SDS011;4899;42.644;23.366;2023-07-24T01:00:19;11.97;;;10.57;;
9720;SDS011;4899;42.644;23.366;2023-07-24T01:02:44;11.70;;;10.33;;
9720;SDS011;4899;42.644;23.366;2023-07-24T01:05:09;12.53;;;10.70;;
9720;SDS011;4899;42.644;23.366;2023-07-24T01:07:36;12.43;;;10.60;;
9720;SDS011;4899;42.644;23.366;2023-07-24T01:10:01;14.17;;;10.43;;
9720;SDS011;4899;42.644;23.366;2023-07-24T01:12:39;13.57;;;10.60;;
9720;SDS011;4899;42.644;23.366;2023-07-24T01:15:09;11.83;;;10.60;;
9720;SDS011;4899;42.644;23.366;2023-07-24T01:17:38;11.87;;;10.07;;
9720;SDS011;4899;42.644;23.366;2023-07-24T01:20:04;12.23;;;10.53;;
9720;SDS011;4899;42.644;23.366;2023-07-24T01:22:39;11.43;;;10.23;;
9720;SDS011;4899;42.644;23.366;2023-07-24T01:25:09;14.60;;;10.60;;
9720;SDS011;4899;42.644;23.366;2023-07-24T01:27:40;11.83;;;10.63;;
9720;SDS011;4899;42.644;23.366;2023-07-24T01:30:05;11.37;;;9.83;;
9720;SDS011;4899;42.644;23.366;2023-07-24T01:32:30;12.27;;;11.00;;
9720;SDS011;4899;42.644;23.366;2023-07-24T01:34:56;12.50;;;10.30;;
9720;SDS011;4899;42.644;23.366;2023-07-24T01:37:21;11.57;;;10.37;;
9720;SDS011;4899;42.644;23.366;2023-07-24T01:39:47;12.60;;;11.03;;
9720;SDS011;4899;42.644;23.366;2023-07-24T01:42:12;12.60;;;11.07;;
9720;SDS011;4899;42.644;23.366;2023-07-24T01:44:38;11.30;;;10.10;;
9720;SDS011;4899;42.644;23.366;2023-07-24T01:47:03;11.17;;;10.00;;
9720;SDS011;4899;42.644;23.366;2023-07-24T01:49:29;11.53;;;10.37;;
9720;SDS011;4899;42.644;23.366;2023-07-24T01:51:54;12.17;;;10.67;;
9720;SDS011;4899;42.644;23.366;2023-07-24T01:54:19;11.33;;;10.13;;
9720;SDS011;4899;42.644;23.366;2023-07-24T01:56:45;13.57;;;11.83;;
9720;SDS011;4899;42.644;23.366;2023-07-24T01:59:10;13.97;;;10.43;;
9720;SDS011;4899;42.644;23.366;2023-07-24T02:01:35;12.00;;;10.70;;
9720;SDS011;4899;42.644;23.366;2023-07-24T02:04:01;13.53;;;10.23;;
9720;SDS011;4899;42.644;23.366;2023-07-24T02:06:26;12.83;;;11.53;;
9720;SDS011;4899;42.644;23.366;2023-07-24T02:08:51;12.13;;;10.87;;
9720;SDS011;4899;42.644;23.366;2023-07-24T02:11:17;14.57;;;11.73;;
9720;SDS011;4899;42.644;23.366;2023-07-24T02:13:45;11.80;;;10.60;;
9720;SDS011;4899;42.644;23.366;2023-07-24T02:16:11;13.63;;;12.00;;
9720;SDS011;4899;42.644;23.366;2023-07-24T02:18:38;14.70;;;12.23;;
9720;SDS011;4899;42.644;23.366;2023-07-24T02:21:03;13.47;;;11.50;;
9720;SDS011;4899;42.644;23.366;2023-07-24T02:23:28;15.17;;;11.27;;
9720;SDS011;4899;42.644;23.366;2023-07-24T02:25:54;12.07;;;10.83;;
9720;SDS011;4899;42.644;23.366;2023-07-24T02:28:19;14.33;;;11.07;;
9720;SDS011;4899;42.644;23.366;2023-07-24T02:30:46;11.77;;;10.60;;
9720;SDS011;4899;42.644;23.366;2023-07-24T02:33:11;13.57;;;11.90;;
9720;SDS011;4899;42.644;23.366;2023-07-24T02:35:39;13.33;;;10.97;;
9720;SDS011;4899;42.644;23.366;2023-07-24T02:38:05;12.67;;;10.93;;
9720;SDS011;4899;42.644;23.366;2023-07-24T02:40:30;13.10;;;11.37;;
9720;SDS011;4899;42.644;23.366;2023-07-24T02:42:56;14.27;;;11.43;;
9720;SDS011;4899;42.644;23.366;2023-07-24T02:45:21;14.47;;;11.23;;
9720;SDS011;4899;42.644;23.366;2023-07-24T02:47:46;13.23;;;11.77;;
9720;SDS011;4899;42.644;23.366;2023-07-24T02:50:11;13.60;;;11.67;;
9720;SDS011;4899;42.644;23.366;2023-07-24T02:52:36;14.27;;;12.13;;
9720;SDS011;4899;42.644;23.366;2023-07-24T02:55:02;13.53;;;12.03;;
9720;SDS011;4899;42.644;23.366;2023-07-24T02:57:27;14.20;;;11.87;;
9720;SDS011;4899;42.644;23.366;2023-07-24T02:59:52;15.30;;;12.60;;
9720;SDS011;4899;42.644;23.366;2023-07-24T03:02:18;14.33;;;12.20;;
9720;SDS011;4899;42.644;23.366;2023-07-24T03:04:43;14.00;;;12.40;;
9720;SDS011;4899;42.644;23.366;2023-07-24T03:07:08;15.07;;;12.40;;
9720;SDS011;4899;42.644;23.366;2023-07-24T03:09:33;17.97;;;11.73;;
9720;SDS011;4899;42.644;23.366;2023-07-24T03:11:59;13.90;;;11.80;;
9720;SDS011;4899;42.644;23.366;2023-07-24T03:14:24;13.87;;;11.20;;
9720;SDS011;4899;42.644;23.366;2023-07-24T03:16:49;16.03;;;12.40;;
9720;SDS011;4899;42.644;23.366;2023-07-24T03:19:15;14.47;;;12.10;;
9720;SDS011;4899;42.644;23.366;2023-07-24T03:21:42;16.40;;;12.83;;
9720;SDS011;4899;42.644;23.366;2023-07-24T03:24:07;15.00;;;12.93;;
9720;SDS011;4899;42.644;23.366;2023-07-24T03:26:33;14.47;;;12.47;;
9720;SDS011;4899;42.644;23.366;2023-07-24T03:28:58;15.87;;;13.43;;
9720;SDS011;4899;42.644;23.366;2023-07-24T03:31:23;15.47;;;13.00;;
9720;SDS011;4899;42.644;23.366;2023-07-24T03:33:48;16.27;;;12.17;;
9720;SDS011;4899;42.644;23.366;2023-07-24T03:36:14;15.03;;;12.77;;
9720;SDS011;4899;42.644;23.366;2023-07-24T03:38:39;14.63;;;11.93;;
9720;SDS011;4899;42.644;23.366;2023-07-24T03:41:04;17.20;;;12.27;;
9720;SDS011;4899;42.644;23.366;2023-07-24T03:43:30;13.63;;;11.80;;
9720;SDS011;4899;42.644;23.366;2023-07-24T03:45:55;14.83;;;12.87;;
9720;SDS011;4899;42.644;23.366;2023-07-24T03:48:20;15.43;;;12.77;;
9720;SDS011;4899;42.644;23.366;2023-07-24T03:50:45;14.63;;;12.30;;
9720;SDS011;4899;42.644;23.366;2023-07-24T03:53:11;16.47;;;13.20;;
9720;SDS011;4899;42.644;23.366;2023-07-24T03:55:36;14.60;;;12.30;;
9720;SDS011;4899;42.644;23.366;2023-07-24T03:58:01;15.07;;;11.87;;
9720;SDS011;4899;42.644;23.366;2023-07-24T04:00:26;14.87;;;12.00;;
9720;SDS011;4899;42.644;23.366;2023-07-24T04:02:52;16.30;;;11.97;;
9720;SDS011;4899;42.644;23.366;2023-07-24T04:05:17;14.70;;;11.87;;
9720;SDS011;4899;42.644;23.366;2023-07-24T04:07:42;14.67;;;11.57;;
9720;SDS011;4899;42.644;23.366;2023-07-24T04:10:08;13.20;;;11.30;;
9720;SDS011;4899;42.644;23.366;2023-07-24T04:12:33;15.73;;;12.03;;
9720;SDS011;4899;42.644;23.366;2023-07-24T04:14:58;14.50;;;11.87;;
9720;SDS011;4899;42.644;23.366;2023-07-24T04:17:23;15.47;;;12.27;;
9720;SDS011;4899;42.644;23.366;2023-07-24T04:19:49;12.73;;;11.43;;
9720;SDS011;4899;42.644;23.366;2023-07-24T04:22:14;13.10;;;11.70;;
9720;SDS011;4899;42.644;23.366;2023-07-24T04:24:39;13.10;;;11.77;;
9720;SDS011;4899;42.644;23.366;2023-07-24T04:27:05;21.23;;;17.20;;
9720;SDS011;4899;42.644;23.366;2023-07-24T04:29:30;13.23;;;11.20;;
9720;SDS011;4899;42.644;23.366;2023-07-24T04:31:55;13.17;;;11.83;;
9720;SDS011;4899;42.644;23.366;2023-07-24T04:34:21;14.93;;;12.97;;
9720;SDS011;4899;42.644;23.366;2023-07-24T04:36:46;15.10;;;12.97;;
9720;SDS011;4899;42.644;23.366;2023-07-24T04:39:11;14.73;;;12.07;;
9720;SDS011;4899;42.644;23.366;2023-07-24T04:41:36;14.07;;;12.57;;
9720;SDS011;4899;42.644;23.366;2023-07-24T04:44:02;13.80;;;12.20;;
9720;SDS011;4899;42.644;23.366;2023-07-24T04:46:27;15.57;;;12.33;;
9720;SDS011;4899;42.644;23.366;2023-07-24T04:48:52;13.57;;;12.17;;
9720;SDS011;4899;42.644;23.366;2023-07-24T04:51:18;17.73;;;12.40;;
9720;SDS011;4899;42.644;23.366;2023-07-24T04:53:44;16.03;;;13.03;;
9720;SDS011;4899;42.644;23.366;2023-07-24T04:56:09;14.77;;;13.03;;
9720;SDS011;4899;42.644;23.366;2023-07-24T04:58:35;14.87;;;12.50;;
9720;SDS011;4899;42.644;23.366;2023-07-24T05:01:03;15.33;;;13.23;;
9720;SDS011;4899;42.644;23.366;2023-07-24T05:03:29;14.70;;;13.10;;
9720;SDS011;4899;42.644;23.366;2023-07-24T05:05:54;16.57;;;13.40;;
9720;SDS011;4899;42.644;23.366;2023-07-24T05:08:21;14.33;;;12.83;;
9720;SDS011;4899;42.644;23.366;2023-07-24T05:10:46;14.73;;;12.27;;
9720;SDS011;4899;42.644;23.366;2023-07-24T05:13:11;13.60;;;12.17;;
9720;SDS011;4899;42.644;23.366;2023-07-24T05:15:37;17.53;;;13.17;;
9720;SDS011;4899;42.644;23.366;2023-07-24T05:18:02;15.13;;;13.07;;
9720;SDS011;4899;42.644;23.366;2023-07-24T05:20:27;15.83;;;13.40;;
9720;SDS011;4899;42.644;23.366;2023-07-24T05:22:53;15.50;;;12.53;;
9720;SDS011;4899;42.644;23.366;2023-07-24T05:25:18;15.47;;;13.03;;
9720;SDS011;4899;42.644;23.366;2023-07-24T05:27:43;16.23;;;13.00;;
9720;SDS011;4899;42.644;23.366;2023-07-24T05:30:08;15.97;;;12.57;;
9720;SDS011;4899;42.644;23.366;2023-07-24T05:32:34;19.53;;;13.47;;
9720;SDS011;4899;42.644;23.366;2023-07-24T05:34:59;16.37;;;13.47;;
9720;SDS011;4899;42.644;23.366;2023-07-24T05:37:24;13.63;;;12.23;;
9720;SDS011;4899;42.644;23.366;2023-07-24T05:39:49;15.40;;;12.97;;
9720;SDS011;4899;42.644;23.366;2023-07-24T05:42:16;13.43;;;12.03;;
9720;SDS011;4899;42.644;23.366;2023-07-24T05:44:41;15.37;;;13.00;;
9720;SDS011;4899;42.644;23.366;2023-07-24T05:47:06;12.73;;;10.93;;
9720;SDS011;4899;42.644;23.366;2023-07-24T05:49:32;12.77;;;11.27;;
9720;SDS011;4899;42.644;23.366;2023-07-24T05:51:57;11.93;;;10.73;;
9720;SDS011;4899;42.644;23.366;2023-07-24T05:54:22;11.57;;;10.37;;
9720;SDS011;4899;42.644;23.366;2023-07-24T05:56:47;11.63;;;10.53;;
9720;SDS011;4899;42.644;23.366;2023-07-24T05:59:13;13.13;;;11.30;;
9720;SDS011;4899;42.644;23.366;2023-07-24T06:01:38;14.23;;;11.07;;
9720;SDS011;4899;42.644;23.366;2023-07-24T06:04:03;11.77;;;10.57;;
9720;SDS011;4899;42.644;23.366;2023-07-24T06:06:30;11.87;;;10.67;;
9720;SDS011;4899;42.644;23.366;2023-07-24T06:08:56;12.37;;;11.07;;
9720;SDS011;4899;42.644;23.366;2023-07-24T06:11:21;13.17;;;11.83;;
9720;SDS011;4899;42.644;23.366;2023-07-24T06:13:48;13.03;;;11.57;;
9720;SDS011;4899;42.644;23.366;2023-07-24T06:16:13;11.30;;;10.10;;
9720;SDS011;4899;42.644;23.366;2023-07-24T06:18:39;14.30;;;11.33;;
9720;SDS011;4899;42.644;23.366;2023-07-24T06:21:04;12.63;;;11.23;;
9720;SDS011;4899;42.644;23.366;2023-07-24T06:23:29;14.73;;;12.07;;
9720;SDS011;4899;42.644;23.366;2023-07-24T06:25:55;11.50;;;10.30;;
9720;SDS011;4899;42.644;23.366;2023-07-24T06:28:20;10.57;;;9.50;;
9720;SDS011;4899;42.644;23.366;2023-07-24T06:30:46;11.13;;;10.03;;
9720;SDS011;4899;42.644;23.366;2023-07-24T06:33:11;11.03;;;10.00;;
9720;SDS011;4899;42.644;23.366;2023-07-24T06:35:36;11.90;;;10.60;;
9720;SDS011;4899;42.644;23.366;2023-07-24T06:38:01;11.70;;;10.50;;
9720;SDS011;4899;42.644;23.366;2023-07-24T06:40:27;12.73;;;11.53;;
9720;SDS011;4899;42.644;23.366;2023-07-24T06:42:52;12.90;;;11.50;;
9720;SDS011;4899;42.644;23.366;2023-07-24T06:45:18;12.60;;;11.23;;
9720;SDS011;4899;42.644;23.366;2023-07-24T06:47:43;13.53;;;10.90;;
9720;SDS011;4899;42.644;23.366;2023-07-24T06:50:08;15.07;;;11.30;;
9720;SDS011;4899;42.644;23.366;2023-07-24T06:52:34;12.40;;;11.17;;
9720;SDS011;4899;42.644;23.366;2023-07-24T06:54:59;12.07;;;10.37;;
9720;SDS011;4899;42.644;23.366;2023-07-24T06:57:24;16.30;;;10.03;;
9720;SDS011;4899;42.644;23.366;2023-07-24T06:59:50;10.57;;;9.33;;
9720;SDS011;4899;42.644;23.366;2023-07-24T07:02:15;15.50;;;9.43;;
9720;SDS011;4899;42.644;23.366;2023-07-24T07:04:40;10.83;;;9.20;;
9720;SDS011;4899;42.644;23.366;2023-07-24T07:07:06;11.43;;;9.83;;
9720;SDS011;4899;42.644;23.366;2023-07-24T07:09:31;9.97;;;9.07;;
9720;SDS011;4899;42.644;23.366;2023-07-24T07:11:56;15.50;;;9.40;;
9720;SDS011;4899;42.644;23.366;2023-07-24T07:14:21;10.47;;;9.43;;
9720;SDS011;4899;42.644;23.366;2023-07-24T07:16:46;10.87;;;9.63;;
9720;SDS011;4899;42.644;23.366;2023-07-24T07:19:13;10.40;;;9.30;;
9720;SDS011;4899;42.644;23.366;2023-07-24T07:21:38;10.77;;;9.70;;
9720;SDS011;4899;42.644;23.366;2023-07-24T07:24:03;10.67;;;9.47;;
9720;SDS011;4899;42.644;23.366;2023-07-24T07:26:29;13.27;;;9.73;;
9720;SDS011;4899;42.644;23.366;2023-07-24T07:28:55;15.23;;;9.40;;
9720;SDS011;4899;42.644;23.366;2023-07-24T07:31:20;11.00;;;9.87;;
9720;SDS011;4899;42.644;23.366;2023-07-24T07:33:46;10.53;;;9.40;;
9720;SDS011;4899;42.644;23.366;2023-07-24T07:36:11;10.17;;;9.10;;
9720;SDS011;4899;42.644;23.366;2023-07-24T07:38:37;10.27;;;8.50;;
9720;SDS011;4899;42.644;23.366;2023-07-24T07:41:04;12.43;;;9.33;;
9720;SDS011;4899;42.644;23.366;2023-07-24T07:43:30;13.03;;;9.43;;
9720;SDS011;4899;42.644;23.366;2023-07-24T07:45:55;11.23;;;9.20;;
9720;SDS011;4899;42.644;23.366;2023-07-24T07:48:21;9.80;;;8.87;;
9720;SDS011;4899;42.644;23.366;2023-07-24T07:50:50;11.57;;;9.33;;
9720;SDS011;4899;42.644;23.366;2023-07-24T07:53:15;10.50;;;9.50;;
9720;SDS011;4899;42.644;23.366;2023-07-24T07:55:40;10.33;;;8.77;;
9720;SDS011;4899;42.644;23.366;2023-07-24T07:58:05;11.83;;;9.80;;
9720;SDS011;4899;42.644;23.366;2023-07-24T08:00:31;11.63;;;9.63;;
9720;SDS011;4899;42.644;23.366;2023-07-24T08:02:56;10.73;;;9.63;;
9720;SDS011;4899;42.644;23.366;2023-07-24T08:05:21;12.20;;;10.43;;
9720;SDS011;4899;42.644;23.366;2023-07-24T08:07:46;12.43;;;10.53;;
9720;SDS011;4899;42.644;23.366;2023-07-24T08:10:12;11.13;;;9.80;;
9720;SDS011;4899;42.644;23.366;2023-07-24T08:12:40;10.77;;;9.63;;
9720;SDS011;4899;42.644;23.366;2023-07-24T08:15:05;11.00;;;10.00;;
9720;SDS011;4899;42.644;23.366;2023-07-24T08:17:31;12.77;;;10.87;;
9720;SDS011;4899;42.644;23.366;2023-07-24T08:19:56;12.20;;;10.90;;
9720;SDS011;4899;42.644;23.366;2023-07-24T08:22:21;12.40;;;11.13;;
9720;SDS011;4899;42.644;23.366;2023-07-24T08:24:48;12.13;;;10.37;;
9720;SDS011;4899;42.644;23.366;2023-07-24T08:27:15;11.70;;;9.77;;
9720;SDS011;4899;42.644;23.366;2023-07-24T08:29:40;11.23;;;10.20;;
9720;SDS011;4899;42.644;23.366;2023-07-24T08:32:05;11.23;;;9.97;;
9720;SDS011;4899;42.644;23.366;2023-07-24T08:34:31;10.67;;;9.53;;
9720;SDS011;4899;42.644;23.366;2023-07-24T08:36:56;12.37;;;10.73;;
9720;SDS011;4899;42.644;23.366;2023-07-24T08:39:22;12.27;;;11.10;;
9720;SDS011;4899;42.644;23.366;2023-07-24T08:41:47;12.57;;;10.98;;
9720;SDS011;4899;42.644;23.366;2023-07-24T08:44:12;12.18;;;10.98;;
9720;SDS011;4899;42.644;23.366;2023-07-24T08:46:38;12.45;;;11.05;;
9720;SDS011;4899;42.644;23.366;2023-07-24T08:49:06;11.57;;;10.37;;
9720;SDS011;4899;42.644;23.366;2023-07-24T08:51:31;12.57;;;10.55;;
9720;SDS011;4899;42.644;23.366;2023-07-24T08:53:57;14.45;;;11.10;;
9720;SDS011;4899;42.644;23.366;2023-07-24T08:56:24;13.60;;;12.20;;
9720;SDS011;4899;42.644;23.366;2023-07-24T08:58:49;13.25;;;11.30;;
9720;SDS011;4899;42.644;23.366;2023-07-24T09:01:14;13.15;;;10.45;;
9720;SDS011;4899;42.644;23.366;2023-07-24T09:03:40;12.38;;;10.15;;
9720;SDS011;4899;42.644;23.366;2023-07-24T09:06:05;13.00;;;11.70;;
9720;SDS011;4899;42.644;23.366;2023-07-24T09:10:58;12.95;;;11.65;;
9720;SDS011;4899;42.644;23.366;2023-07-24T09:13:23;16.75;;;10.73;;
9720;SDS011;4899;42.644;23.366;2023-07-24T09:15:49;12.80;;;11.25;;
9720;SDS011;4899;42.644;23.366;2023-07-24T09:18:14;12.65;;;11.40;;
9720;SDS011;4899;42.644;23.366;2023-07-24T09:20:41;13.77;;;11.10;;
9720;SDS011;4899;42.644;23.366;2023-07-24T09:23:07;12.73;;;11.43;;
9720;SDS011;4899;42.644;23.366;2023-07-24T09:25:34;12.98;;;11.55;;
9720;SDS011;4899;42.644;23.366;2023-07-24T09:27:59;14.65;;;11.65;;
9720;SDS011;4899;42.644;23.366;2023-07-24T09:30:25;14.40;;;11.75;;
9720;SDS011;4899;42.644;23.366;2023-07-24T09:32:53;13.00;;;11.70;;
9720;SDS011;4899;42.644;23.366;2023-07-24T09:35:19;12.70;;;10.85;;
9720;SDS011;4899;42.644;23.366;2023-07-24T09:37:44;17.10;;;11.75;;
9720;SDS011;4899;42.644;23.366;2023-07-24T09:40:10;13.60;;;11.65;;
9720;SDS011;4899;42.644;23.366;2023-07-24T09:42:37;13.30;;;11.95;;
9720;SDS011;4899;42.644;23.366;2023-07-24T09:45:03;13.57;;;11.45;;
9720;SDS011;4899;42.644;23.366;2023-07-24T09:47:28;13.90;;;12.38;;
9720;SDS011;4899;42.644;23.366;2023-07-24T09:49:54;13.07;;;11.70;;
9720;SDS011;4899;42.644;23.366;2023-07-24T09:52:20;17.35;;;12.70;;
9720;SDS011;4899;42.644;23.366;2023-07-24T09:57:34;13.55;;;11.57;;
9720;SDS011;4899;42.644;23.366;2023-07-24T09:59:59;13.32;;;11.93;;
9720;SDS011;4899;42.644;23.366;2023-07-24T10:02:26;16.52;;;11.30;;
9720;SDS011;4899;42.644;23.366;2023-07-24T10:04:52;12.57;;;11.20;;
9720;SDS011;4899;42.644;23.366;2023-07-24T10:07:18;12.73;;;10.90;;
9720;SDS011;4899;42.644;23.366;2023-07-24T10:09:46;12.80;;;11.10;;
9720;SDS011;4899;42.644;23.366;2023-07-24T10:12:12;14.23;;;11.60;;
9720;SDS011;4899;42.644;23.366;2023-07-24T10:14:37;13.45;;;11.40;;
9720;SDS011;4899;42.644;23.366;2023-07-24T10:17:03;12.68;;;11.27;;
9720;SDS011;4899;42.644;23.366;2023-07-24T10:19:35;12.20;;;10.63;;
9720;SDS011;4899;42.644;23.366;2023-07-24T10:22:01;14.85;;;12.00;;
9720;SDS011;4899;42.644;23.366;2023-07-24T10:24:30;13.88;;;11.50;;
9720;SDS011;4899;42.644;23.366;2023-07-24T10:26:56;16.45;;;11.45;;
9720;SDS011;4899;42.644;23.366;2023-07-24T10:29:23;11.80;;;10.25;;
9720;SDS011;4899;42.644;23.366;2023-07-24T10:31:52;16.58;;;11.90;;
9720;SDS011;4899;42.644;23.366;2023-07-24T10:34:17;12.85;;;10.93;;
9720;SDS011;4899;42.644;23.366;2023-07-24T10:36:43;12.40;;;11.00;;
9720;SDS011;4899;42.644;23.366;2023-07-24T10:39:17;14.60;;;11.75;;
9720;SDS011;4899;42.644;23.366;2023-07-24T10:41:45;14.27;;;11.45;;
9720;SDS011;4899;42.644;23.366;2023-07-24T10:44:11;19.02;;;10.90;;
9720;SDS011;4899;42.644;23.366;2023-07-24T10:46:38;12.63;;;10.57;;
9720;SDS011;4899;42.644;23.366;2023-07-24T10:49:03;13.25;;;11.18;;
9720;SDS011;4899;42.644;23.366;2023-07-24T10:51:29;12.55;;;9.75;;
9720;SDS011;4899;42.644;23.366;2023-07-24T10:53:54;13.25;;;8.85;;
9720;SDS011;4899;42.644;23.366;2023-07-24T10:56:19;14.45;;;8.30;;
9720;SDS011;4899;42.644;23.366;2023-07-24T10:58:45;13.30;;;8.55;;
9720;SDS011;4899;42.644;23.366;2023-07-24T11:01:10;11.38;;;9.23;;
9720;SDS011;4899;42.644;23.366;2023-07-24T11:03:36;11.13;;;7.75;;
9720;SDS011;4899;42.644;23.366;2023-07-24T11:06:02;8.73;;;7.82;;
9720;SDS011;4899;42.644;23.366;2023-07-24T11:08:27;11.43;;;8.82;;
9720;SDS011;4899;42.644;23.366;2023-07-24T11:10:54;12.65;;;7.85;;
9720;SDS011;4899;42.644;23.366;2023-07-24T11:13:23;10.60;;;7.78;;
9720;SDS011;4899;42.644;23.366;2023-07-24T11:15:49;13.02;;;7.95;;
9720;SDS011;4899;42.644;23.366;2023-07-24T11:18:14;8.95;;;8.07;;
9720;SDS011;4899;42.644;23.366;2023-07-24T11:20:49;9.68;;;7.78;;
9720;SDS011;4899;42.644;23.366;2023-07-24T11:23:15;10.23;;;8.43;;
9720;SDS011;4899;42.644;23.366;2023-07-24T11:25:40;9.40;;;8.27;;
9720;SDS011;4899;42.644;23.366;2023-07-24T11:28:06;10.43;;;8.25;;
9720;SDS011;4899;42.644;23.366;2023-07-24T11:30:32;10.38;;;8.65;;
9720;SDS011;4899;42.644;23.366;2023-07-24T11:32:57;9.23;;;8.40;;
9720;SDS011;4899;42.644;23.366;2023-07-24T11:35:24;10.98;;;8.57;;
9720;SDS011;4899;42.644;23.366;2023-07-24T11:37:50;10.35;;;8.00;;
9720;SDS011;4899;42.644;23.366;2023-07-24T11:40:16;13.27;;;8.73;;
9720;SDS011;4899;42.644;23.366;2023-07-24T11:42:44;9.05;;;8.15;;
9720;SDS011;4899;42.644;23.366;2023-07-24T11:45:10;10.45;;;8.10;;
9720;SDS011;4899;42.644;23.366;2023-07-24T11:47:45;9.07;;;7.90;;
9720;SDS011;4899;42.644;23.366;2023-07-24T11:50:10;10.73;;;7.88;;
9720;SDS011;4899;42.644;23.366;2023-07-24T11:52:39;11.05;;;8.40;;
9720;SDS011;4899;42.644;23.366;2023-07-24T11:55:06;10.68;;;8.52;;
9720;SDS011;4899;42.644;23.366;2023-07-24T11:57:31;11.85;;;8.18;;
9720;SDS011;4899;42.644;23.366;2023-07-24T11:59:56;13.10;;;8.45;;
9720;SDS011;4899;42.644;23.366;2023-07-24T12:02:25;11.88;;;7.82;;
9720;SDS011;4899;42.644;23.366;2023-07-24T12:04:54;8.93;;;8.05;;
9720;SDS011;4899;42.644;23.366;2023-07-24T12:07:21;8.70;;;7.90;;
9720;SDS011;4899;42.644;23.366;2023-07-24T12:09:52;11.23;;;8.23;;
9720;SDS011;4899;42.644;23.366;2023-07-24T12:12:18;12.68;;;9.00;;
9720;SDS011;4899;42.644;23.366;2023-07-24T12:14:43;13.30;;;8.32;;
9720;SDS011;4899;42.644;23.366;2023-07-24T12:17:08;9.10;;;8.13;;
9720;SDS011;4899;42.644;23.366;2023-07-24T12:19:37;10.90;;;8.57;;
9720;SDS011;4899;42.644;23.366;2023-07-24T12:22:02;9.73;;;8.70;;
9720;SDS011;4899;42.644;23.366;2023-07-24T12:24:29;9.27;;;8.20;;
9720;SDS011;4899;42.644;23.366;2023-07-24T12:26:54;10.48;;;8.50;;
9720;SDS011;4899;42.644;23.366;2023-07-24T12:29:19;10.05;;;8.45;;
9720;SDS011;4899;42.644;23.366;2023-07-24T12:31:45;9.15;;;8.15;;
9720;SDS011;4899;42.644;23.366;2023-07-24T12:34:10;11.52;;;8.60;;
9720;SDS011;4899;42.644;23.366;2023-07-24T12:36:35;11.73;;;8.68;;
9720;SDS011;4899;42.644;23.366;2023-07-24T12:39:00;13.30;;;8.85;;
9720;SDS011;4899;42.644;23.366;2023-07-24T12:41:26;9.95;;;8.73;;
9720;SDS011;4899;42.644;23.366;2023-07-24T12:43:51;9.90;;;8.45;;
9720;SDS011;4899;42.644;23.366;2023-07-24T12:46:16;9.50;;;8.27;;
9720;SDS011;4899;42.644;23.366;2023-07-24T12:48:41;9.88;;;8.70;;
9720;SDS011;4899;42.644;23.366;2023-07-24T12:51:07;13.32;;;8.23;;
9720;SDS011;4899;42.644;23.366;2023-07-24T12:53:32;11.05;;;8.65;;
9720;SDS011;4899;42.644;23.366;2023-07-24T12:55:57;9.23;;;8.30;;
9720;SDS011;4899;42.644;23.366;2023-07-24T12:58:22;8.82;;;7.97;;
9720;SDS011;4899;42.644;23.366;2023-07-24T13:00:48;9.13;;;8.18;;
9720;SDS011;4899;42.644;23.366;2023-07-24T13:03:13;9.25;;;8.43;;
9720;SDS011;4899;42.644;23.366;2023-07-24T13:05:38;8.55;;;7.70;;
9720;SDS011;4899;42.644;23.366;2023-07-24T13:08:04;9.27;;;8.15;;
9720;SDS011;4899;42.644;23.366;2023-07-24T13:10:29;9.63;;;8.55;;
9720;SDS011;4899;42.644;23.366;2023-07-24T13:12:54;10.45;;;8.60;;
9720;SDS011;4899;42.644;23.366;2023-07-24T13:15:20;9.95;;;8.25;;
9720;SDS011;4899;42.644;23.366;2023-07-24T13:17:45;8.95;;;8.05;;
9720;SDS011;4899;42.644;23.366;2023-07-24T13:20:11;10.18;;;8.48;;
9720;SDS011;4899;42.644;23.366;2023-07-24T13:22:36;9.32;;;8.52;;
9720;SDS011;4899;42.644;23.366;2023-07-24T13:25:01;12.75;;;9.07;;
9720;SDS011;4899;42.644;23.366;2023-07-24T13:27:27;11.07;;;8.75;;
9720;SDS011;4899;42.644;23.366;2023-07-24T13:29:52;9.90;;;8.55;;
9720;SDS011;4899;42.644;23.366;2023-07-24T13:32:17;10.23;;;8.38;;
9720;SDS011;4899;42.644;23.366;2023-07-24T13:34:43;11.98;;;8.77;;
9720;SDS011;4899;42.644;23.366;2023-07-24T13:37:08;9.20;;;8.25;;
9720;SDS011;4899;42.644;23.366;2023-07-24T13:39:33;10.35;;;8.07;;
9720;SDS011;4899;42.644;23.366;2023-07-24T13:41:59;9.88;;;8.88;;
9720;SDS011;4899;42.644;23.366;2023-07-24T13:44:25;11.80;;;9.52;;
9720;SDS011;4899;42.644;23.366;2023-07-24T13:46:50;10.57;;;8.48;;
9720;SDS011;4899;42.644;23.366;2023-07-24T13:49:15;10.02;;;8.93;;
9720;SDS011;4899;42.644;23.366;2023-07-24T13:51:40;11.35;;;9.18;;
9720;SDS011;4899;42.644;23.366;2023-07-24T13:54:05;9.87;;;8.87;;
9720;SDS011;4899;42.644;23.366;2023-07-24T13:56:31;11.18;;;8.20;;
9720;SDS011;4899;42.644;23.366;2023-07-24T13:59:00;10.10;;;9.30;;
9720;SDS011;4899;42.644;23.366;2023-07-24T14:01:25;9.40;;;8.38;;
9720;SDS011;4899;42.644;23.366;2023-07-24T14:03:50;9.60;;;8.68;;
9720;SDS011;4899;42.644;23.366;2023-07-24T14:06:15;9.25;;;8.30;;
9720;SDS011;4899;42.644;23.366;2023-07-24T14:08:41;8.98;;;8.18;;
9720;SDS011;4899;42.644;23.366;2023-07-24T14:11:06;9.48;;;8.68;;
9720;SDS011;4899;42.644;23.366;2023-07-24T14:13:31;9.73;;;8.77;;
9720;SDS011;4899;42.644;23.366;2023-07-24T14:15:56;9.98;;;8.82;;
9720;SDS011;4899;42.644;23.366;2023-07-24T14:18:22;9.47;;;8.60;;
9720;SDS011;4899;42.644;23.366;2023-07-24T14:20:47;10.02;;;8.60;;
9720;SDS011;4899;42.644;23.366;2023-07-24T14:23:13;10.25;;;9.35;;
9720;SDS011;4899;42.644;23.366;2023-07-24T14:25:38;10.13;;;9.13;;
9720;SDS011;4899;42.644;23.366;2023-07-24T14:28:03;10.35;;;9.30;;
9720;SDS011;4899;42.644;23.366;2023-07-24T14:30:28;10.90;;;9.63;;
9720;SDS011;4899;42.644;23.366;2023-07-24T14:32:54;10.13;;;9.18;;
9720;SDS011;4899;42.644;23.366;2023-07-24T14:35:19;10.60;;;9.70;;
9720;SDS011;4899;42.644;23.366;2023-07-24T14:37:44;10.95;;;10.00;;